sensor_id;sensor_type;location;lat;lon;timestamp;pressure;altitude;pressure_sealevel;temperature;humidity
60433;BME280;46286;48.098;11.590;2023-02-24T00:01:32;94998.88;;;2.07;100.00
60433;BME280;46286;48.098;11.590;2023-02-24T00:04:13;94997.84;;;2.08;100.00
60433;BME280;46286;48.098;11.590;2023-02-24T00:06:41;95001.47;;;2.07;100.00
60433;BME280;46286;48.098;11.590;2023-02-24T00:09:10;94999.13;;;2.05;100.00
60433;BME280;46286;48.098;11.590;2023-02-24T00:11:39;94989.06;;;2.09;100.00
60433;BME280;46286;48.098;11.590;2023-02-24T00:14:06;94985.44;;;2.10;100.00
60433;BME280;46286;48.098;11.590;2023-02-24T00:16:33;94989.50;;;2.06;100.00
60433;BME280;46286;48.098;11.590;2023-02-24T00:19:00;94985.91;;;2.07;100.00
60433;BME280;46286;48.098;11.590;2023-02-24T00:21:26;94988.38;;;2.02;100.00
60433;BME280;46286;48.098;11.590;2023-02-24T00:23:53;94985.66;;;1.97;100.00
60433;BME280;46286;48.098;11.590;2023-02-24T00:26:19;94977.13;;;1.84;100.00
60433;BME280;46286;48.098;11.590;2023-02-24T00:28:45;94976.00;;;1.80;100.00
60433;BME280;46286;48.098;11.590;2023-02-24T00:31:16;94974.63;;;1.78;100.00
60433;BME280;46286;48.098;11.590;2023-02-24T00:33:44;94978.47;;;1.75;100.00
60433;BME280;46286;48.098;11.590;2023-02-24T00:38:37;94978.25;;;1.65;100.00
60433;BME280;46286;48.098;11.590;2023-02-24T00:41:14;94968.44;;;1.55;100.00
60433;BME280;46286;48.098;11.590;2023-02-24T00:43:41;94971.72;;;1.50;100.00
60433;BME280;46286;48.098;11.590;2023-02-24T00:46:18;94971.03;;;1.43;100.00
60433;BME280;46286;48.098;11.590;2023-02-24T00:48:46;94965.16;;;1.36;100.00
60433;BME280;46286;48.098;11.590;2023-02-24T00:51:15;94970.34;;;1.36;100.00
60433;BME280;46286;48.098;11.590;2023-02-24T00:53:42;94966.84;;;1.30;100.00
60433;BME280;46286;48.098;11.590;2023-02-24T00:56:09;94966.97;;;1.24;100.00
60433;BME280;46286;48.098;11.590;2023-02-24T00:58:38;94961.19;;;1.21;100.00
60433;BME280;46286;48.098;11.590;2023-02-24T01:01:04;94961.88;;;1.17;100.00
60433;BME280;46286;48.098;11.590;2023-02-24T01:03:33;94965.47;;;1.16;100.00
60433;BME280;46286;48.098;11.590;2023-02-24T01:06:00;94957.47;;;1.17;100.00
60433;BME280;46286;48.098;11.590;2023-02-24T01:08:27;94955.56;;;1.13;100.00
60433;BME280;46286;48.098;11.590;2023-02-24T01:10:57;94954.19;;;1.10;100.00
60433;BME280;46286;48.098;11.590;2023-02-24T01:13:42;94940.56;;;1.03;100.00
60433;BME280;46286;48.098;11.590;2023-02-24T01:16:07;94944.59;;;0.99;100.00
60433;BME280;46286;48.098;11.590;2023-02-24T01:18:33;94940.00;;;1.01;100.00
60433;BME280;46286;48.098;11.590;2023-02-24T01:20:59;94938.97;;;1.02;100.00
60433;BME280;46286;48.098;11.590;2023-02-24T01:23:25;94932.91;;;1.08;100.00
60433;BME280;46286;48.098;11.590;2023-02-24T01:25:51;94933.59;;;1.15;100.00
60433;BME280;46286;48.098;11.590;2023-02-24T01:28:18;94934.06;;;1.12;100.00
60433;BME280;46286;48.098;11.590;2023-02-24T01:30:43;94921.50;;;1.09;100.00
60433;BME280;46286;48.098;11.590;2023-02-24T01:33:10;94924.91;;;1.10;100.00
60433;BME280;46286;48.098;11.590;2023-02-24T01:35:39;94918.25;;;1.02;100.00
60433;BME280;46286;48.098;11.590;2023-02-24T01:38:05;94927.28;;;1.11;100.00
60433;BME280;46286;48.098;11.590;2023-02-24T01:40:31;94921.09;;;1.12;100.00
60433;BME280;46286;48.098;11.590;2023-02-24T01:42:57;94927.16;;;1.06;100.00
60433;BME280;46286;48.098;11.590;2023-02-24T01:45:26;94921.28;;;0.99;100.00
60433;BME280;46286;48.098;11.590;2023-02-24T01:48:02;94920.28;;;1.00;100.00
60433;BME280;46286;48.098;11.590;2023-02-24T01:50:30;94918.25;;;1.02;100.00
60433;BME280;46286;48.098;11.590;2023-02-24T01:53:01;94915.31;;;1.10;100.00
60433;BME280;46286;48.098;11.590;2023-02-24T01:55:35;94915.91;;;1.12;100.00
60433;BME280;46286;48.098;11.590;2023-02-24T01:58:12;94915.69;;;1.14;100.00
60433;BME280;46286;48.098;11.590;2023-02-24T02:00:40;94908.34;;;1.11;100.00
60433;BME280;46286;48.098;11.590;2023-02-24T02:03:30;94912.72;;;0.98;100.00
60433;BME280;46286;48.098;11.590;2023-02-24T02:06:00;94902.56;;;0.85;100.00
60433;BME280;46286;48.098;11.590;2023-02-24T02:08:27;94894.56;;;0.86;100.00
60433;BME280;46286;48.098;11.590;2023-02-24T02:10:53;94886.34;;;0.78;100.00
60433;BME280;46286;48.098;11.590;2023-02-24T02:13:25;94884.41;;;0.73;100.00
60433;BME280;46286;48.098;11.590;2023-02-24T02:19:03;94881.47;;;0.58;100.00
60433;BME280;46286;48.098;11.590;2023-02-24T02:24:21;94878.97;;;0.63;100.00
60433;BME280;46286;48.098;11.590;2023-02-24T02:41:21;94885.84;;;0.27;100.00
60433;BME280;46286;48.098;11.590;2023-02-24T02:44:00;94884.59;;;0.17;100.00
60433;BME280;46286;48.098;11.590;2023-02-24T02:49:20;94881.31;;;0.10;100.00
60433;BME280;46286;48.098;11.590;2023-02-24T02:51:51;94879.56;;;0.04;100.00
60433;BME280;46286;48.098;11.590;2023-02-24T02:57:11;94883.78;;;0.17;100.00
60433;BME280;46286;48.098;11.590;2023-02-24T02:59:44;94881.75;;;0.07;100.00
60433;BME280;46286;48.098;11.590;2023-02-24T03:02:17;94874.72;;;-0.04;100.00
60433;BME280;46286;48.098;11.590;2023-02-24T03:04:48;94884.34;;;-0.11;100.00
60433;BME280;46286;48.098;11.590;2023-02-24T03:07:17;94878.47;;;-0.19;100.00
60433;BME280;46286;48.098;11.590;2023-02-24T03:09:49;94876.72;;;-0.06;100.00
60433;BME280;46286;48.098;11.590;2023-02-24T03:12:18;94858.91;;;-0.14;100.00
60433;BME280;46286;48.098;11.590;2023-02-24T03:14:48;94868.41;;;-0.08;100.00
60433;BME280;46286;48.098;11.590;2023-02-24T03:17:19;94870.84;;;-0.13;100.00
60433;BME280;46286;48.098;11.590;2023-02-24T03:19:49;94876.00;;;-0.13;100.00
60433;BME280;46286;48.098;11.590;2023-02-24T03:22:35;94875.56;;;-0.10;100.00
60433;BME280;46286;48.098;11.590;2023-02-24T03:25:05;94875.22;;;-0.14;100.00
60433;BME280;46286;48.098;11.590;2023-02-24T03:27:44;94869.84;;;-0.31;100.00
60433;BME280;46286;48.098;11.590;2023-02-24T03:30:22;94869.84;;;-0.31;100.00
60433;BME280;46286;48.098;11.590;2023-02-24T03:35:54;94867.69;;;-0.34;100.00
60433;BME280;46286;48.098;11.590;2023-02-24T03:38:30;94869.34;;;-0.40;100.00
60433;BME280;46286;48.098;11.590;2023-02-24T03:40:56;94861.22;;;-0.43;100.00
60433;BME280;46286;48.098;11.590;2023-02-24T03:43:27;94864.41;;;-0.41;100.00
60433;BME280;46286;48.098;11.590;2023-02-24T03:45:54;94862.09;;;-0.31;100.00
60433;BME280;46286;48.098;11.590;2023-02-24T03:48:21;94867.03;;;-0.29;100.00
60433;BME280;46286;48.098;11.590;2023-02-24T03:50:48;94866.97;;;-0.23;100.00
60433;BME280;46286;48.098;11.590;2023-02-24T03:53:19;94864.94;;;-0.21;100.00
60433;BME280;46286;48.098;11.590;2023-02-24T03:59:03;94855.91;;;-0.11;100.00
60433;BME280;46286;48.098;11.590;2023-02-24T04:01:45;94850.66;;;-0.23;100.00
60433;BME280;46286;48.098;11.590;2023-02-24T04:04:31;94853.38;;;-0.18;100.00
60433;BME280;46286;48.098;11.590;2023-02-24T04:07:08;94851.03;;;-0.20;100.00
60433;BME280;46286;48.098;11.590;2023-02-24T04:10:03;94843.38;;;-0.14;100.00
60433;BME280;46286;48.098;11.590;2023-02-24T04:13:00;94838.50;;;-0.04;100.00
60433;BME280;46286;48.098;11.590;2023-02-24T04:15:41;94825.25;;;0.04;100.00
60433;BME280;46286;48.098;11.590;2023-02-24T04:18:14;94829.31;;;0.00;100.00
60433;BME280;46286;48.098;11.590;2023-02-24T04:20:42;94828.84;;;0.03;100.00
60433;BME280;46286;48.098;11.590;2023-02-24T04:23:14;94825.94;;;0.11;100.00
60433;BME280;46286;48.098;11.590;2023-02-24T04:25:43;94826.81;;;0.05;100.00
60433;BME280;46286;48.098;11.590;2023-02-24T04:28:11;94832.16;;;0.10;100.00
60433;BME280;46286;48.098;11.590;2023-02-24T04:30:41;94831.81;;;0.19;100.00
60433;BME280;46286;48.098;11.590;2023-02-24T04:33:08;94830.81;;;0.20;100.00
60433;BME280;46286;48.098;11.590;2023-02-24T04:35:34;94824.75;;;0.26;100.00
60433;BME280;46286;48.098;11.590;2023-02-24T04:38:03;94825.19;;;0.23;100.00
60433;BME280;46286;48.098;11.590;2023-02-24T04:40:29;94820.94;;;0.28;100.00
60433;BME280;46286;48.098;11.590;2023-02-24T04:42:55;94812.50;;;0.33;100.00
60433;BME280;46286;48.098;11.590;2023-02-24T04:45:24;94815.13;;;0.45;100.00
60433;BME280;46286;48.098;11.590;2023-02-24T04:47:52;94814.56;;;0.55;100.00
60433;BME280;46286;48.098;11.590;2023-02-24T04:50:23;94812.47;;;0.63;100.00
60433;BME280;46286;48.098;11.590;2023-02-24T04:53:05;94791.50;;;0.77;100.00
60433;BME280;46286;48.098;11.590;2023-02-24T04:55:35;94796.91;;;0.99;100.00
60433;BME280;46286;48.098;11.590;2023-02-24T04:58:05;94796.00;;;1.17;100.00
60433;BME280;46286;48.098;11.590;2023-02-24T05:00:31;94785.97;;;1.20;100.00
60433;BME280;46286;48.098;11.590;2023-02-24T05:03:02;94789.06;;;1.46;100.00
60433;BME280;46286;48.098;11.590;2023-02-24T05:05:29;94776.88;;;1.59;100.00
60433;BME280;46286;48.098;11.590;2023-02-24T05:08:06;94778.34;;;1.83;100.00
60433;BME280;46286;48.098;11.590;2023-02-24T05:10:44;94773.22;;;2.00;100.00
60433;BME280;46286;48.098;11.590;2023-02-24T05:13:22;94770.84;;;1.99;100.00
60433;BME280;46286;48.098;11.590;2023-02-24T05:15:54;94763.59;;;2.01;100.00
60433;BME280;46286;48.098;11.590;2023-02-24T05:18:20;94765.19;;;2.02;100.00
60433;BME280;46286;48.098;11.590;2023-02-24T05:20:52;94764.06;;;1.98;100.00
60433;BME280;46286;48.098;11.590;2023-02-24T05:23:44;94761.41;;;1.93;100.00
60433;BME280;46286;48.098;11.590;2023-02-24T05:26:13;94763.53;;;1.67;100.00
60433;BME280;46286;48.098;11.590;2023-02-24T05:28:41;94744.91;;;1.41;100.00
60433;BME280;46286;48.098;11.590;2023-02-24T05:31:13;94747.06;;;1.32;100.00
60433;BME280;46286;48.098;11.590;2023-02-24T05:33:46;94743.63;;;1.44;100.00
60433;BME280;46286;48.098;11.590;2023-02-24T05:36:17;94739.06;;;1.34;100.00
60433;BME280;46286;48.098;11.590;2023-02-24T05:38:44;94734.66;;;1.34;100.00
60433;BME280;46286;48.098;11.590;2023-02-24T05:41:13;94737.94;;;1.30;100.00
60433;BME280;46286;48.098;11.590;2023-02-24T05:43:46;94734.34;;;1.31;100.00
60433;BME280;46286;48.098;11.590;2023-02-24T05:46:21;94732.75;;;1.30;100.00
60433;BME280;46286;48.098;11.590;2023-02-24T05:48:53;94732.56;;;1.19;100.00
60433;BME280;46286;48.098;11.590;2023-02-24T05:51:29;94734.13;;;1.20;100.00
60433;BME280;46286;48.098;11.590;2023-02-24T05:54:09;94731.78;;;1.60;100.00
60433;BME280;46286;48.098;11.590;2023-02-24T05:56:36;94736.97;;;1.77;100.00
60433;BME280;46286;48.098;11.590;2023-02-24T05:59:05;94735.25;;;1.82;100.00
60433;BME280;46286;48.098;11.590;2023-02-24T06:01:35;94733.78;;;1.86;100.00
60433;BME280;46286;48.098;11.590;2023-02-24T06:04:05;94734.88;;;1.90;100.00
60433;BME280;46286;48.098;11.590;2023-02-24T06:06:36;94730.72;;;1.89;100.00
60433;BME280;46286;48.098;11.590;2023-02-24T06:09:03;94735.91;;;1.89;100.00
60433;BME280;46286;48.098;11.590;2023-02-24T06:11:39;94724.78;;;2.06;100.00
60433;BME280;46286;48.098;11.590;2023-02-24T06:14:06;94724.31;;;2.09;100.00
60433;BME280;46286;48.098;11.590;2023-02-24T06:16:36;94723.97;;;2.22;100.00
60433;BME280;46286;48.098;11.590;2023-02-24T06:19:04;94726.19;;;2.31;100.00
60433;BME280;46286;48.098;11.590;2023-02-24T06:21:30;94727.06;;;2.36;100.00
60433;BME280;46286;48.098;11.590;2023-02-24T06:23:57;94725.25;;;2.37;100.00
60433;BME280;46286;48.098;11.590;2023-02-24T06:26:24;94726.34;;;2.41;100.00
60433;BME280;46286;48.098;11.590;2023-02-24T06:28:57;94739.41;;;2.46;100.00
60433;BME280;46286;48.098;11.590;2023-02-24T06:31:24;94732.41;;;2.47;100.00
60433;BME280;46286;48.098;11.590;2023-02-24T06:33:52;94729.47;;;2.60;100.00
60433;BME280;46286;48.098;11.590;2023-02-24T06:36:18;94723.44;;;2.54;100.00
60433;BME280;46286;48.098;11.590;2023-02-24T06:38:44;94723.22;;;2.39;100.00
60433;BME280;46286;48.098;11.590;2023-02-24T06:41:11;94736.25;;;2.44;100.00
60433;BME280;46286;48.098;11.590;2023-02-24T06:43:37;94739.91;;;2.43;100.00
60433;BME280;46286;48.098;11.590;2023-02-24T06:46:07;94736.03;;;2.46;100.00
60433;BME280;46286;48.098;11.590;2023-02-24T06:48:33;94740.03;;;2.53;100.00
60433;BME280;46286;48.098;11.590;2023-02-24T06:53:30;94741.63;;;2.54;100.00
60433;BME280;46286;48.098;11.590;2023-02-24T06:56:04;94742.25;;;2.62;100.00
60433;BME280;46286;48.098;11.590;2023-02-24T06:58:31;94736.09;;;2.51;100.00
60433;BME280;46286;48.098;11.590;2023-02-24T07:00:57;94750.34;;;2.48;100.00
60433;BME280;46286;48.098;11.590;2023-02-24T07:03:25;94745.16;;;2.48;100.00
60433;BME280;46286;48.098;11.590;2023-02-24T07:06:07;94749.00;;;2.63;100.00
60433;BME280;46286;48.098;11.590;2023-02-24T07:08:47;94745.47;;;2.69;100.00
60433;BME280;46286;48.098;11.590;2023-02-24T07:11:14;94745.06;;;2.77;100.00
60433;BME280;46286;48.098;11.590;2023-02-24T07:13:42;94745.44;;;2.86;100.00
60433;BME280;46286;48.098;11.590;2023-02-24T07:16:09;94741.09;;;2.91;100.00
60433;BME280;46286;48.098;11.590;2023-02-24T07:18:37;94739.66;;;3.01;100.00
60433;BME280;46286;48.098;11.590;2023-02-24T07:21:05;94736.66;;;3.09;100.00
60433;BME280;46286;48.098;11.590;2023-02-24T07:23:39;94738.78;;;3.12;100.00
60433;BME280;46286;48.098;11.590;2023-02-24T07:26:07;94730.00;;;3.18;100.00
60433;BME280;46286;48.098;11.590;2023-02-24T07:28:37;94730.13;;;3.28;100.00
60433;BME280;46286;48.098;11.590;2023-02-24T07:31:06;94733.56;;;3.34;100.00
60433;BME280;46286;48.098;11.590;2023-02-24T07:33:34;94723.00;;;3.41;100.00
60433;BME280;46286;48.098;11.590;2023-02-24T07:36:05;94726.72;;;3.50;100.00
60433;BME280;46286;48.098;11.590;2023-02-24T07:38:37;94727.41;;;3.68;100.00
60433;BME280;46286;48.098;11.590;2023-02-24T07:41:04;94720.75;;;3.77;100.00
60433;BME280;46286;48.098;11.590;2023-02-24T07:43:36;94722.94;;;3.85;100.00
60433;BME280;46286;48.098;11.590;2023-02-24T07:46:12;94718.91;;;3.99;100.00
60433;BME280;46286;48.098;11.590;2023-02-24T07:48:39;94724.22;;;4.15;100.00
60433;BME280;46286;48.098;11.590;2023-02-24T07:51:11;94724.06;;;4.27;100.00
60433;BME280;46286;48.098;11.590;2023-02-24T07:53:39;94715.63;;;4.47;100.00
60433;BME280;46286;48.098;11.590;2023-02-24T07:56:10;94713.38;;;4.61;100.00
60433;BME280;46286;48.098;11.590;2023-02-24T07:58:45;94720.97;;;4.67;100.00
60433;BME280;46286;48.098;11.590;2023-02-24T08:01:17;94713.72;;;4.75;100.00
60433;BME280;46286;48.098;11.590;2023-02-24T08:03:49;94710.66;;;4.83;100.00
60433;BME280;46286;48.098;11.590;2023-02-24T08:06:17;94714.84;;;4.89;100.00
60433;BME280;46286;48.098;11.590;2023-02-24T08:08:54;94717.75;;;4.98;100.00
60433;BME280;46286;48.098;11.590;2023-02-24T08:11:28;94707.09;;;5.05;100.00
60433;BME280;46286;48.098;11.590;2023-02-24T08:14:01;94699.47;;;4.93;100.00
60433;BME280;46286;48.098;11.590;2023-02-24T08:16:28;94705.56;;;5.14;100.00
60433;BME280;46286;48.098;11.590;2023-02-24T08:19:15;94694.63;;;5.12;100.00
60433;BME280;46286;48.098;11.590;2023-02-24T08:21:51;94699.78;;;5.01;100.00
60433;BME280;46286;48.098;11.590;2023-02-24T08:24:19;94692.53;;;5.09;100.00
60433;BME280;46286;48.098;11.590;2023-02-24T08:26:54;94686.78;;;5.12;100.00
60433;BME280;46286;48.098;11.590;2023-02-24T08:29:30;94688.63;;;5.16;100.00
60433;BME280;46286;48.098;11.590;2023-02-24T08:31:56;94690.97;;;5.18;100.00
60433;BME280;46286;48.098;11.590;2023-02-24T08:34:23;94682.19;;;5.40;100.00
60433;BME280;46286;48.098;11.590;2023-02-24T08:36:52;94676.50;;;5.58;100.00
60433;BME280;46286;48.098;11.590;2023-02-24T08:39:20;94671.78;;;5.60;100.00
60433;BME280;46286;48.098;11.590;2023-02-24T08:41:47;94677.06;;;5.70;100.00
60433;BME280;46286;48.098;11.590;2023-02-24T08:44:17;94671.56;;;5.77;100.00
60433;BME280;46286;48.098;11.590;2023-02-24T08:46:47;94665.03;;;5.75;100.00
60433;BME280;46286;48.098;11.590;2023-02-24T08:49:15;94659.84;;;5.80;100.00
60433;BME280;46286;48.098;11.590;2023-02-24T08:51:43;94662.47;;;6.00;100.00
60433;BME280;46286;48.098;11.590;2023-02-24T08:54:17;94651.53;;;6.14;100.00
60433;BME280;46286;48.098;11.590;2023-02-24T08:56:48;94650.75;;;6.08;100.00
60433;BME280;46286;48.098;11.590;2023-02-24T08:59:16;94654.41;;;6.22;100.00
60433;BME280;46286;48.098;11.590;2023-02-24T09:02:19;94647.84;;;6.30;100.00
60433;BME280;46286;48.098;11.590;2023-02-24T09:05:03;94645.22;;;6.46;100.00
60433;BME280;46286;48.098;11.590;2023-02-24T09:07:39;94650.91;;;6.73;100.00
60433;BME280;46286;48.098;11.590;2023-02-24T09:10:18;94642.00;;;6.85;100.00
60433;BME280;46286;48.098;11.590;2023-02-24T09:12:45;94644.06;;;6.93;100.00
60433;BME280;46286;48.098;11.590;2023-02-24T09:15:12;94645.06;;;7.07;100.00
60433;BME280;46286;48.098;11.590;2023-02-24T09:17:41;94635.56;;;7.22;100.00
60433;BME280;46286;48.098;11.590;2023-02-24T09:22:53;94632.81;;;7.48;100.00
60433;BME280;46286;48.098;11.590;2023-02-24T09:25:27;94621.78;;;7.56;100.00
60433;BME280;46286;48.098;11.590;2023-02-24T09:28:12;94624.97;;;7.42;100.00
60433;BME280;46286;48.098;11.590;2023-02-24T09:30:59;94623.31;;;7.62;100.00
60433;BME280;46286;48.098;11.590;2023-02-24T09:36:10;94620.75;;;7.52;100.00
60433;BME280;46286;48.098;11.590;2023-02-24T09:38:57;94612.69;;;7.83;100.00
60433;BME280;46286;48.098;11.590;2023-02-24T09:41:45;94603.13;;;7.68;100.00
60433;BME280;46286;48.098;11.590;2023-02-24T09:44:34;94602.09;;;7.98;100.00
60433;BME280;46286;48.098;11.590;2023-02-24T09:47:14;94600.81;;;7.95;100.00
60433;BME280;46286;48.098;11.590;2023-02-24T09:49:56;94596.41;;;7.86;100.00
60433;BME280;46286;48.098;11.590;2023-02-24T09:52:26;94593.94;;;8.05;100.00
60433;BME280;46286;48.098;11.590;2023-02-24T09:55:18;94588.91;;;8.08;100.00
60433;BME280;46286;48.098;11.590;2023-02-24T10:00:59;94580.44;;;8.17;100.00
60433;BME280;46286;48.098;11.590;2023-02-24T10:03:58;94579.16;;;8.43;100.00
60433;BME280;46286;48.098;11.590;2023-02-24T10:09:28;94574.09;;;8.23;100.00
60433;BME280;46286;48.098;11.590;2023-02-24T10:14:51;94565.53;;;8.41;100.00
60433;BME280;46286;48.098;11.590;2023-02-24T10:17:19;94555.91;;;9.42;100.00
60433;BME280;46286;48.098;11.590;2023-02-24T10:19:58;94553.88;;;10.38;100.00
60433;BME280;46286;48.098;11.590;2023-02-24T10:22:33;94552.16;;;10.75;100.00
60433;BME280;46286;48.098;11.590;2023-02-24T10:28:25;94542.56;;;12.11;100.00
60433;BME280;46286;48.098;11.590;2023-02-24T10:31:33;94540.94;;;11.34;100.00
60433;BME280;46286;48.098;11.590;2023-02-24T10:34:02;94535.03;;;11.14;100.00
60433;BME280;46286;48.098;11.590;2023-02-24T10:36:32;94534.19;;;11.05;100.00
60433;BME280;46286;48.098;11.590;2023-02-24T10:39:12;94528.59;;;11.43;100.00
60433;BME280;46286;48.098;11.590;2023-02-24T10:41:49;94530.16;;;11.44;100.00
60433;BME280;46286;48.098;11.590;2023-02-24T10:44:26;94524.53;;;11.37;100.00
60433;BME280;46286;48.098;11.590;2023-02-24T10:47:11;94527.28;;;11.32;100.00
60433;BME280;46286;48.098;11.590;2023-02-24T10:49:46;94517.47;;;10.45;100.00
60433;BME280;46286;48.098;11.590;2023-02-24T10:52:31;94517.06;;;10.66;100.00
60433;BME280;46286;48.098;11.590;2023-02-24T10:55:26;94509.38;;;11.06;100.00
60433;BME280;46286;48.098;11.590;2023-02-24T10:58:04;94506.69;;;11.34;100.00
60433;BME280;46286;48.098;11.590;2023-02-24T11:00:47;94502.34;;;11.15;100.00
60433;BME280;46286;48.098;11.590;2023-02-24T11:03:26;94499.97;;;11.27;100.00
60433;BME280;46286;48.098;11.590;2023-02-24T11:06:20;94490.75;;;11.84;100.00
60433;BME280;46286;48.098;11.590;2023-02-24T11:09:05;94499.34;;;12.21;100.00
60433;BME280;46286;48.098;11.590;2023-02-24T11:11:45;94489.47;;;12.36;100.00
60433;BME280;46286;48.098;11.590;2023-02-24T11:14:30;94479.00;;;12.22;100.00
60433;BME280;46286;48.098;11.590;2023-02-24T11:17:20;94470.19;;;13.10;100.00
60433;BME280;46286;48.098;11.590;2023-02-24T11:19:57;94463.03;;;13.02;100.00
60433;BME280;46286;48.098;11.590;2023-02-24T11:22:30;94471.31;;;12.34;100.00
60433;BME280;46286;48.098;11.590;2023-02-24T11:25:02;94462.63;;;12.42;100.00
60433;BME280;46286;48.098;11.590;2023-02-24T11:27:30;94459.09;;;12.47;100.00
60433;BME280;46286;48.098;11.590;2023-02-24T11:41:00;94428.94;;;10.77;100.00
60433;BME280;46286;48.098;11.590;2023-02-24T11:43:28;94433.91;;;11.15;100.00
60433;BME280;46286;48.098;11.590;2023-02-24T11:46:00;94420.84;;;11.10;100.00
60433;BME280;46286;48.098;11.590;2023-02-24T11:48:34;94411.75;;;10.94;100.00
60433;BME280;46286;48.098;11.590;2023-02-24T11:51:15;94410.78;;;10.89;100.00
60433;BME280;46286;48.098;11.590;2023-02-24T11:53:52;94404.44;;;10.90;100.00
60433;BME280;46286;48.098;11.590;2023-02-24T11:56:29;94401.38;;;10.97;100.00
60433;BME280;46286;48.098;11.590;2023-02-24T12:01:28;94390.84;;;10.38;100.00
60433;BME280;46286;48.098;11.590;2023-02-24T12:04:04;94386.34;;;10.38;100.00
60433;BME280;46286;48.098;11.590;2023-02-24T12:06:56;94386.53;;;10.42;100.00
60433;BME280;46286;48.098;11.590;2023-02-24T12:09:29;94377.75;;;10.33;100.00
60433;BME280;46286;48.098;11.590;2023-02-24T12:12:02;94377.97;;;10.22;100.00
60433;BME280;46286;48.098;11.590;2023-02-24T12:14:37;94374.66;;;10.17;100.00
60433;BME280;46286;48.098;11.590;2023-02-24T12:22:19;94351.75;;;10.45;100.00
60433;BME280;46286;48.098;11.590;2023-02-24T12:24:50;94364.72;;;10.28;100.00
60433;BME280;46286;48.098;11.590;2023-02-24T12:27:40;94352.44;;;10.37;100.00
60433;BME280;46286;48.098;11.590;2023-02-24T12:36:39;94356.34;;;10.26;100.00
60433;BME280;46286;48.098;11.590;2023-02-24T12:39:20;94344.06;;;10.21;100.00
60433;BME280;46286;48.098;11.590;2023-02-24T12:42:05;94328.31;;;10.35;100.00
60433;BME280;46286;48.098;11.590;2023-02-24T12:52:30;94332.50;;;10.58;100.00
60433;BME280;46286;48.098;11.590;2023-02-24T12:55:01;94334.06;;;10.60;100.00
60433;BME280;46286;48.098;11.590;2023-02-24T12:57:50;94324.16;;;10.56;100.00
60433;BME280;46286;48.098;11.590;2023-02-24T13:00:36;94321.09;;;10.40;100.00
60433;BME280;46286;48.098;11.590;2023-02-24T13:03:18;94320.09;;;10.50;100.00
60433;BME280;46286;48.098;11.590;2023-02-24T13:05:53;94316.72;;;10.58;100.00
60433;BME280;46286;48.098;11.590;2023-02-24T13:08:38;94309.19;;;10.66;100.00
60433;BME280;46286;48.098;11.590;2023-02-24T13:11:36;94311.72;;;10.71;100.00
60433;BME280;46286;48.098;11.590;2023-02-24T13:14:31;94299.09;;;10.82;100.00
60433;BME280;46286;48.098;11.590;2023-02-24T13:19:40;94300.72;;;10.69;100.00
60433;BME280;46286;48.098;11.590;2023-02-24T13:22:07;94299.91;;;10.46;100.00
60433;BME280;46286;48.098;11.590;2023-02-24T13:24:34;94290.97;;;10.69;100.00
60433;BME280;46286;48.098;11.590;2023-02-24T13:27:24;94293.06;;;10.81;100.00
60433;BME280;46286;48.098;11.590;2023-02-24T13:29:56;94287.56;;;11.23;100.00
60433;BME280;46286;48.098;11.590;2023-02-24T13:32:38;94284.53;;;11.38;100.00
60433;BME280;46286;48.098;11.590;2023-02-24T13:37:51;94269.25;;;10.86;100.00
60433;BME280;46286;48.098;11.590;2023-02-24T13:45:21;94261.97;;;10.61;100.00
60433;BME280;46286;48.098;11.590;2023-02-24T13:50:22;94250.50;;;10.56;100.00
60433;BME280;46286;48.098;11.590;2023-02-24T13:53:08;94252.47;;;10.51;100.00
60433;BME280;46286;48.098;11.590;2023-02-24T13:55:53;94257.53;;;10.47;100.00
60433;BME280;46286;48.098;11.590;2023-02-24T14:01:16;94252.34;;;10.19;100.00
60433;BME280;46286;48.098;11.590;2023-02-24T14:03:59;94260.00;;;10.07;100.00
60433;BME280;46286;48.098;11.590;2023-02-24T14:06:26;94256.50;;;9.98;100.00
60433;BME280;46286;48.098;11.590;2023-02-24T14:08:55;94250.66;;;10.01;100.00
60433;BME280;46286;48.098;11.590;2023-02-24T14:11:27;94246.06;;;9.56;100.00
60433;BME280;46286;48.098;11.590;2023-02-24T14:13:55;94251.31;;;9.70;100.00
60433;BME280;46286;48.098;11.590;2023-02-24T14:16:24;94243.72;;;9.54;100.00
60433;BME280;46286;48.098;11.590;2023-02-24T14:18:54;94241.41;;;9.53;100.00
60433;BME280;46286;48.098;11.590;2023-02-24T14:21:23;94244.50;;;9.69;100.00
60433;BME280;46286;48.098;11.590;2023-02-24T14:24:01;94239.84;;;9.66;100.00
60433;BME280;46286;48.098;11.590;2023-02-24T14:26:40;94235.56;;;9.70;100.00
60433;BME280;46286;48.098;11.590;2023-02-24T14:29:07;94234.38;;;9.76;100.00
60433;BME280;46286;48.098;11.590;2023-02-24T14:31:33;94218.22;;;9.69;100.00
60433;BME280;46286;48.098;11.590;2023-02-24T14:34:03;94222.88;;;9.86;100.00
60433;BME280;46286;48.098;11.590;2023-02-24T14:36:34;94225.44;;;9.63;100.00
60433;BME280;46286;48.098;11.590;2023-02-24T14:39:28;94227.16;;;9.68;100.00
60433;BME280;46286;48.098;11.590;2023-02-24T14:42:09;94233.31;;;9.63;100.00
60433;BME280;46286;48.098;11.590;2023-02-24T14:44:53;94231.47;;;9.36;100.00
60433;BME280;46286;48.098;11.590;2023-02-24T14:47:24;94213.22;;;9.17;100.00
60433;BME280;46286;48.098;11.590;2023-02-24T14:55:18;94201.13;;;9.02;100.00
60433;BME280;46286;48.098;11.590;2023-02-24T15:00:24;94202.88;;;8.79;100.00
60433;BME280;46286;48.098;11.590;2023-02-24T15:05:22;94193.34;;;8.69;100.00
60433;BME280;46286;48.098;11.590;2023-02-24T15:07:48;94191.97;;;8.72;100.00
60433;BME280;46286;48.098;11.590;2023-02-24T15:10:22;94204.59;;;8.56;100.00
60433;BME280;46286;48.098;11.590;2023-02-24T15:12:53;94196.03;;;8.50;100.00